createdAt,value
2022-12-19T00:02:55.228Z,101697.69
2022-12-19T00:07:59.050Z,101692.13
2022-12-19T00:13:07.998Z,101679.38
2022-12-19T00:18:13.094Z,101685.63
2022-12-19T00:23:16.860Z,101690.69
2022-12-19T00:28:20.626Z,101681.84
2022-12-19T00:33:26.441Z,101682.28
2022-12-19T00:38:30.635Z,101668.75
2022-12-19T00:43:34.327Z,101663.81
2022-12-19T00:48:41.826Z,101669.03
2022-12-19T00:53:47.384Z,101664.37
2022-12-19T00:58:53.263Z,101651.78
2022-12-19T01:04:27.177Z,101644.41
2022-12-19T01:09:23.785Z,101638.44
2022-12-19T01:14:27.456Z,101637.81
2022-12-19T01:19:32.488Z,101623.69
2022-12-19T01:24:36.214Z,101618.28
2022-12-19T01:29:51.783Z,101615.72
2022-12-19T01:34:58.057Z,101613.44
2022-12-19T01:40:01.762Z,101604.41
2022-12-19T01:45:22.563Z,101609.94
2022-12-19T01:50:33.225Z,101610.22
2022-12-19T01:55:38.308Z,101610.91
2022-12-19T02:00:44.271Z,101600.53
2022-12-19T02:05:50.431Z,101595.84
2022-12-19T02:10:55.273Z,101581.06
2022-12-19T02:16:07.430Z,101577.00
2022-12-19T02:21:30.009Z,101570.16
2022-12-19T02:27:07.054Z,101568.91
2022-12-19T02:32:20.698Z,101559.88
2022-12-19T02:37:29.064Z,101557.38
2022-12-19T02:42:37.333Z,101557.66
2022-12-19T02:47:43.406Z,101551.69
2022-12-19T02:52:49.428Z,101536.00
2022-12-19T02:58:38.975Z,101535.78
2022-12-19T03:03:51.944Z,101543.22
2022-12-19T03:09:02.429Z,101534.28
2022-12-19T03:14:09.128Z,101537.22
2022-12-19T03:19:15.709Z,101533.56
2022-12-19T03:24:20.756Z,101533.81
2022-12-19T03:29:30.420Z,101528.84
2022-12-19T03:34:41.546Z,101533.72
2022-12-19T03:39:50.905Z,101536.53
2022-12-19T03:44:56.695Z,101523.25
2022-12-19T03:50:02.436Z,101522.00
2022-12-19T03:55:12.329Z,101522.25
2022-12-19T04:00:18.796Z,101527.84
2022-12-19T04:05:26.588Z,101527.84
2022-12-19T04:10:31.311Z,101527.94
2022-12-19T04:15:43.346Z,101519.00
2022-12-19T04:20:56.147Z,101510.88
2022-12-19T04:26:03.691Z,101506.41
2022-12-19T04:31:08.925Z,101510.84
2022-12-19T04:36:14.095Z,101524.03
2022-12-19T04:41:17.741Z,101531.28
2022-12-19T04:46:21.448Z,101532.03
2022-12-19T04:51:26.550Z,101534.03
2022-12-19T04:56:30.201Z,101531.31
2022-12-19T05:01:34.002Z,101518.59
2022-12-19T05:06:39.101Z,101525.13
2022-12-19T05:11:42.879Z,101522.19
2022-12-19T05:16:46.835Z,101516.13
2022-12-19T05:21:51.859Z,101527.28
2022-12-19T05:26:55.566Z,101516.81
2022-12-19T05:31:59.324Z,101509.53
2022-12-19T05:37:04.633Z,101506.09
2022-12-19T05:42:12.115Z,101524.25
2022-12-19T05:47:16.256Z,101520.25
2022-12-19T05:52:21.455Z,101524.31
2022-12-19T05:57:25.213Z,101520.72
2022-12-19T06:02:33.788Z,101523.66
2022-12-19T06:07:38.938Z,101525.53
2022-12-19T06:12:42.717Z,101529.22
2022-12-19T06:17:46.621Z,101527.25
2022-12-19T06:22:51.676Z,101523.69
2022-12-19T06:27:55.410Z,101527.69
2022-12-19T06:32:59.141Z,101536.41
2022-12-19T06:38:04.246Z,101518.81
2022-12-19T06:43:07.946Z,101530.78
2022-12-19T06:48:11.619Z,101534.00
2022-12-19T06:53:16.718Z,101526.41
2022-12-19T06:58:24.356Z,101530.22
2022-12-19T07:03:32.746Z,101533.66
2022-12-19T07:08:37.797Z,101519.41
2022-12-19T07:13:41.485Z,101514.34
2022-12-19T07:18:45.180Z,101530.44
2022-12-19T07:23:50.361Z,101512.13
2022-12-19T07:28:54.623Z,101520.19
2022-12-19T07:33:58.956Z,101525.81
2022-12-19T07:39:04.795Z,101522.44
2022-12-19T07:44:09.258Z,101522.91
2022-12-19T07:49:14.247Z,101534.81
2022-12-19T07:54:22.069Z,101539.19
2022-12-19T07:59:30.354Z,101547.09
2022-12-19T08:04:36.587Z,101547.22
2022-12-19T08:09:41.674Z,101543.31
2022-12-19T08:14:45.401Z,101547.66
2022-12-19T08:19:49.144Z,101530.91
2022-12-19T08:24:54.245Z,101542.97
2022-12-19T08:29:57.907Z,101534.59
2022-12-19T08:35:01.669Z,101545.09
2022-12-19T08:40:08.258Z,101547.56
2022-12-19T08:45:12.112Z,101550.91
2022-12-19T08:50:15.867Z,101539.63
2022-12-19T08:55:21.705Z,101541.50
2022-12-19T09:00:25.629Z,101543.19
2022-12-19T09:06:05.439Z,101550.34
2022-12-19T09:11:00.715Z,101559.94
2022-12-19T09:16:06.456Z,101561.03
2022-12-19T09:21:10.483Z,101558.59
2022-12-19T09:26:15.492Z,101562.16
2022-12-19T09:31:21.383Z,101554.34
2022-12-19T09:36:26.974Z,101555.87
2022-12-19T09:41:45.744Z,101546.50
2022-12-19T09:46:52.298Z,101555.53
2022-12-19T09:52:02.159Z,101548.81
2022-12-19T09:57:15.498Z,101555.37
2022-12-19T10:02:28.243Z,101544.06
2022-12-19T10:07:57.823Z,101541.63
2022-12-19T10:13:14.698Z,101546.97
2022-12-19T10:18:36.218Z,101529.13
2022-12-19T10:23:58.776Z,101520.53
2022-12-19T10:29:20.669Z,101532.44
2022-12-19T10:34:29.472Z,101537.09
2022-12-19T10:39:38.162Z,101537.59
2022-12-19T10:44:45.088Z,101539.25
2022-12-19T10:49:49.383Z,101531.87
2022-12-19T10:54:53.167Z,101545.00
2022-12-19T11:00:00.611Z,101542.28
2022-12-19T11:05:05.658Z,101529.63
2022-12-19T11:11:38.605Z,101541.63
2022-12-19T11:23:04.598Z,101535.59
2022-12-19T11:29:14.881Z,101533.72
2022-12-19T11:30:48.671Z,101510.00
2022-12-19T11:32:47.076Z,101522.38
2022-12-19T11:37:56.010Z,101524.50
2022-12-19T11:43:42.664Z,101510.25
2022-12-19T11:48:39.770Z,101500.25
2022-12-19T11:53:52.108Z,101495.41
2022-12-19T11:58:59.128Z,101478.91
2022-12-19T12:04:46.244Z,101460.94
2022-12-19T12:15:57.708Z,101455.81
2022-12-19T12:28:03.522Z,101431.16
2022-12-19T12:31:17.476Z,101444.72
2022-12-19T12:31:41.879Z,101410.13
2022-12-19T12:35:40.501Z,101386.84
2022-12-19T12:43:23.424Z,101358.25
2022-12-19T12:48:31.250Z,101356.31
2022-12-19T12:53:39.483Z,101348.50
2022-12-19T12:58:44.825Z,101343.13
2022-12-19T13:03:59.861Z,101329.28
2022-12-19T13:09:21.207Z,101316.50
2022-12-19T13:14:49.926Z,101317.75
2022-12-19T13:19:56.521Z,101316.88
2022-12-19T13:25:02.270Z,101312.44
2022-12-19T13:30:17.327Z,101313.38
2022-12-19T13:39:24.151Z,101308.31
2022-12-19T13:41:02.058Z,101288.78
2022-12-19T13:46:19.371Z,101292.34
2022-12-19T13:51:23.543Z,101295.03
2022-12-19T13:56:31.884Z,101289.28
2022-12-19T14:01:36.730Z,101269.38
2022-12-19T14:06:42.557Z,101277.63
2022-12-19T14:12:28.197Z,101270.87
2022-12-19T14:17:15.066Z,101262.34
2022-12-19T14:22:25.801Z,101254.44
2022-12-19T14:28:23.522Z,101232.00
2022-12-19T14:33:46.160Z,101227.47
2022-12-19T14:39:25.839Z,101220.44
2022-12-19T14:53:17.516Z,101233.78
2022-12-19T14:54:16.319Z,101227.63
2022-12-19T14:56:08.775Z,101231.78
2022-12-19T15:01:09.549Z,101248.44
2022-12-19T15:07:05.297Z,101256.34
2022-12-19T15:13:30.451Z,101268.06
2022-12-19T15:17:28.448Z,101288.56
2022-12-19T15:22:32.151Z,101284.81
2022-12-19T15:27:36.088Z,101273.53
2022-12-19T15:32:41.445Z,101262.31
2022-12-19T15:37:45.737Z,101262.16
2022-12-19T15:42:54.948Z,101252.00
2022-12-19T15:48:00.288Z,101257.63
2022-12-19T15:53:24.412Z,101266.94
2022-12-19T15:58:35.711Z,101265.69
2022-12-19T16:03:41.098Z,101269.44
2022-12-19T16:08:45.069Z,101258.34
2022-12-19T16:13:52.809Z,101262.62
2022-12-19T16:18:58.523Z,101285.72
2022-12-19T16:24:02.275Z,101265.62
2022-12-19T16:29:06.621Z,101259.81
2022-12-19T16:34:15.888Z,101251.38
2022-12-19T16:39:19.815Z,101242.25
2022-12-19T16:44:25.565Z,101245.69
2022-12-19T16:49:32.097Z,101251.38
2022-12-19T16:54:35.877Z,101254.91
2022-12-19T16:59:41.318Z,101257.69
2022-12-19T17:04:50.505Z,101256.34
2022-12-19T17:09:57.556Z,101258.88
2022-12-19T17:15:01.382Z,101260.72
2022-12-19T17:20:10.778Z,101252.72
2022-12-19T17:25:18.831Z,101262.88
2022-12-19T17:30:23.429Z,101262.88
2022-12-19T17:35:32.756Z,101251.63
2022-12-19T17:40:36.773Z,101247.91
2022-12-19T17:45:41.451Z,101246.94
2022-12-19T17:50:46.692Z,101246.47
2022-12-19T17:55:50.688Z,101243.13
2022-12-19T18:00:54.671Z,101251.91
2022-12-19T18:05:59.887Z,101254.69
2022-12-19T18:11:07.573Z,101260.37
2022-12-19T18:16:14.284Z,101261.97
2022-12-19T18:21:22.368Z,101262.88
2022-12-19T18:26:26.079Z,101262.50
2022-12-19T18:31:30.390Z,101253.16
2022-12-19T18:36:40.858Z,101250.44
2022-12-19T18:41:44.594Z,101257.78
2022-12-19T18:46:50.430Z,101263.50
2022-12-19T18:51:55.550Z,101260.81
2022-12-19T18:56:59.670Z,101266.59
2022-12-19T19:02:04.894Z,101271.06
2022-12-19T19:07:12.054Z,101271.22
2022-12-19T19:12:15.753Z,101270.87
2022-12-19T19:17:26.124Z,101264.47
2022-12-19T19:22:31.171Z,101271.03
2022-12-19T19:27:35.104Z,101274.25
2022-12-19T19:32:45.227Z,101279.47
2022-12-19T19:37:52.325Z,101281.78
2022-12-19T19:42:56.246Z,101274.03
2022-12-19T19:48:03.987Z,101292.19
2022-12-19T19:53:09.233Z,101289.41
2022-12-19T19:58:13.027Z,101294.28
2022-12-19T20:03:22.464Z,101302.53
2022-12-19T20:08:33.663Z,101304.41
2022-12-19T20:13:42.565Z,101296.19
2022-12-19T20:18:49.868Z,101289.84
2022-12-19T20:23:54.961Z,101307.78
2022-12-19T20:28:58.848Z,101314.34
2022-12-19T20:34:02.595Z,101320.31
2022-12-19T20:39:07.937Z,101316.62
2022-12-19T20:44:11.818Z,101318.56
2022-12-19T20:49:15.535Z,101325.31
2022-12-19T20:54:21.043Z,101314.13
2022-12-19T20:59:24.710Z,101325.19
2022-12-19T21:04:28.807Z,101316.88
2022-12-19T21:09:34.250Z,101318.37
2022-12-19T21:14:37.954Z,101309.97
2022-12-19T21:19:41.827Z,101312.31
2022-12-19T21:24:47.064Z,101305.50
2022-12-19T21:29:50.801Z,101311.34
2022-12-19T21:34:54.669Z,101306.88
2022-12-19T21:39:59.723Z,101293.81
2022-12-19T21:45:03.392Z,101301.94
2022-12-19T21:50:09.171Z,101307.00
2022-12-19T21:55:14.229Z,101317.59
2022-12-19T22:00:18.505Z,101305.88
2022-12-19T22:05:22.217Z,101289.34
2022-12-19T22:10:27.259Z,101299.22
2022-12-19T22:15:31.224Z,101285.72
2022-12-19T22:20:34.991Z,101283.31
2022-12-19T22:25:40.097Z,101267.06
2022-12-19T22:30:43.843Z,101251.50
2022-12-19T22:35:47.582Z,101242.91
2022-12-19T22:40:52.958Z,101235.97
2022-12-19T22:45:56.747Z,101254.63
2022-12-19T22:51:00.576Z,101261.81
2022-12-19T22:56:08.168Z,101258.34
2022-12-19T23:01:16.776Z,101257.66
2022-12-19T23:06:21.389Z,101253.47
2022-12-19T23:11:28.878Z,101263.69
2022-12-19T23:16:32.789Z,101255.06
2022-12-19T23:21:37.598Z,101257.31
2022-12-19T23:26:43.052Z,101263.72
2022-12-19T23:31:48.269Z,101242.91
2022-12-19T23:42:17.050Z,101232.59
2022-12-19T23:47:20.982Z,101226.16
2022-12-19T23:52:24.721Z,101211.66
2022-12-19T23:57:29.914Z,101217.25
